aviador You're here:

KBHB Decoded Metar

BAR HARBOR in ME, USA
Report Time2017-08-16 18:56:00
UTC Time2017-08-16 19:28:52
Flight Rules vfr VFR
Wind300° at 08 Gusting to 16 kt
W.Decomp.*RWY 35: 6.9 kt HW 4.1 kt LCW
RWY 04: 1.3 kt HW 7.9 kt LCW
W.Rank300° ranks 11
Current wind is above 300° avg. (6.5)
Visibility9999 m
Phenomena:N/A
Clouds:N/A
Expected CloudBase > 6,400 ft AGL from Temp-Dew spread
CeilingNone
Temp25°C (ISA +10)
Dew Point09°C (36% RH)
AAT21.9°C
QNH1011 hPa
Density Alt1,486 ft
Elevation85 ft
Report Wrong Elevation
Raw Report
KBHB 161856Z AUTO 30008G16KT 260V340 10SM CLR 25/09 A2986 RMK AO2
SLP114 T02500089 $=

Extra information for KBHB:More info

Metar Taf Metar & Taf Last 4 Metars F.Rules Stats Wind Profile Meteogram Temp Stats Airport Information Weather charts Add Link Nearby VenuesMetar ALERT Operation Metar Decoded Social comments

AIRNAV info for KBHB